TimeEST,TemperatureF,Dew PointF,Humidity,Sea Level PressureIn,VisibilityMPH,Wind Direction,Wind SpeedMPH,Gust SpeedMPH,PrecipitationIn,Events,Conditions,WindDirDegrees,DateUTC
12:54 AM,35.1,21.9,59,30.27,10.0,SSW,15.0,-,N/A,,Clear,210,2013-01-19 05:54:00
1:54 AM,36.0,21.0,55,30.26,10.0,SSW,19.6,-,N/A,,Clear,210,2013-01-19 06:54:00
2:54 AM,36.0,23.0,59,30.25,10.0,SSW,16.1,-,N/A,,Clear,200,2013-01-19 07:54:00
3:54 AM,36.0,23.0,59,30.24,10.0,SSW,17.3,-,N/A,,Clear,210,2013-01-19 08:54:00
4:54 AM,35.1,23.0,61,30.22,10.0,SSW,17.3,-,N/A,,Clear,210,2013-01-19 09:54:00
5:54 AM,35.1,23.0,61,30.23,10.0,SW,16.1,-,N/A,,Clear,220,2013-01-19 10:54:00
6:54 AM,35.1,23.0,61,30.22,10.0,SSW,17.3,-,N/A,,Clear,210,2013-01-19 11:54:00
7:54 AM,35.1,24.1,64,30.23,10.0,SSW,18.4,25.3,N/A,,Clear,210,2013-01-19 12:54:00
8:54 AM,37.9,25.0,60,30.22,10.0,SSW,16.1,-,N/A,,Clear,210,2013-01-19 13:54:00
9:54 AM,39.9,25.0,55,30.22,10.0,SW,24.2,29.9,N/A,,Clear,220,2013-01-19 14:54:00
10:54 AM,43.0,26.1,51,30.19,10.0,SSW,27.6,33.4,N/A,,Clear,210,2013-01-19 15:54:00
11:54 AM,46.9,27.0,46,30.15,10.0,SW,21.9,33.4,N/A,,Clear,220,2013-01-19 16:54:00
12:54 PM,48.9,25.0,39,30.09,10.0,SSW,24.2,34.5,N/A,,Clear,210,2013-01-19 17:54:00
1:54 PM,51.1,24.1,35,30.05,10.0,SW,23.0,33.4,N/A,,Clear,220,2013-01-19 18:54:00
2:54 PM,52.0,24.1,34,30.02,10.0,SSW,20.7,32.2,N/A,,Clear,210,2013-01-19 19:54:00
3:54 PM,52.0,26.1,37,29.99,10.0,SSW,20.7,28.8,N/A,,Clear,200,2013-01-19 20:54:00
4:54 PM,50.0,26.1,39,29.98,10.0,SSW,18.4,32.2,N/A,,Clear,200,2013-01-19 21:54:00
5:54 PM,48.0,26.1,42,29.95,10.0,SSW,20.7,28.8,N/A,,Clear,200,2013-01-19 22:54:00
6:54 PM,46.9,25.0,42,29.94,10.0,SSW,20.7,31.1,N/A,,Clear,210,2013-01-19 23:54:00
7:54 PM,46.0,26.1,46,29.96,10.0,SW,21.9,29.9,N/A,,Clear,220,2013-01-20 00:54:00
8:54 PM,45.0,27.0,49,29.96,10.0,SW,18.4,-,N/A,,Clear,220,2013-01-20 01:54:00
9:54 PM,44.1,28.0,53,29.95,10.0,SSW,18.4,31.1,N/A,,Clear,210,2013-01-20 02:54:00
10:54 PM,44.1,28.0,53,29.94,10.0,SW,20.7,27.6,N/A,,Clear,220,2013-01-20 03:54:00
11:54 PM,45.0,28.9,53,29.93,10.0,SW,20.7,27.6,N/A,,Clear,230,2013-01-20 04:54:00